sensor_id;sensor_type;location;lat;lon;timestamp;temperature;humidity
435;DHT22;204;48.942;9.256;2023-03-23T00:01:04;14.00;1.00
435;DHT22;204;48.942;9.256;2023-03-23T00:03:30;14.00;1.00
435;DHT22;204;48.942;9.256;2023-03-23T00:06:00;14.10;1.00
435;DHT22;204;48.942;9.256;2023-03-23T00:08:32;14.10;1.00
435;DHT22;204;48.942;9.256;2023-03-23T00:10:58;14.20;1.00
435;DHT22;204;48.942;9.256;2023-03-23T00:13:27;14.20;1.00
435;DHT22;204;48.942;9.256;2023-03-23T00:15:53;14.20;1.00
435;DHT22;204;48.942;9.256;2023-03-23T00:18:19;14.30;1.00
435;DHT22;204;48.942;9.256;2023-03-23T00:20:49;14.30;1.00
435;DHT22;204;48.942;9.256;2023-03-23T00:23:19;14.40;1.00
435;DHT22;204;48.942;9.256;2023-03-23T00:25:49;14.40;1.00
435;DHT22;204;48.942;9.256;2023-03-23T00:28:16;14.50;1.00
435;DHT22;204;48.942;9.256;2023-03-23T00:30:42;14.50;1.00
435;DHT22;204;48.942;9.256;2023-03-23T00:33:11;14.50;1.00
435;DHT22;204;48.942;9.256;2023-03-23T00:35:38;14.50;1.00
435;DHT22;204;48.942;9.256;2023-03-23T00:38:05;14.50;1.00
435;DHT22;204;48.942;9.256;2023-03-23T00:40:31;14.60;1.00
435;DHT22;204;48.942;9.256;2023-03-23T00:43:01;14.60;1.00
435;DHT22;204;48.942;9.256;2023-03-23T00:45:28;14.70;1.00
435;DHT22;204;48.942;9.256;2023-03-23T00:47:54;14.70;1.00
435;DHT22;204;48.942;9.256;2023-03-23T00:50:19;14.80;1.00
435;DHT22;204;48.942;9.256;2023-03-23T00:52:45;14.80;1.00
435;DHT22;204;48.942;9.256;2023-03-23T00:55:11;14.80;1.00
435;DHT22;204;48.942;9.256;2023-03-23T00:57:36;14.80;1.00
435;DHT22;204;48.942;9.256;2023-03-23T01:00:03;14.90;1.00
435;DHT22;204;48.942;9.256;2023-03-23T01:02:34;14.90;1.00
435;DHT22;204;48.942;9.256;2023-03-23T01:05:01;14.90;1.00
435;DHT22;204;48.942;9.256;2023-03-23T01:07:28;14.90;1.00
435;DHT22;204;48.942;9.256;2023-03-23T01:09:56;14.90;1.00
435;DHT22;204;48.942;9.256;2023-03-23T01:12:23;15.00;1.00
435;DHT22;204;48.942;9.256;2023-03-23T01:14:50;15.00;1.00
435;DHT22;204;48.942;9.256;2023-03-23T01:17:16;15.10;1.00
435;DHT22;204;48.942;9.256;2023-03-23T01:19:42;15.10;1.00
435;DHT22;204;48.942;9.256;2023-03-23T01:22:08;15.10;1.00
435;DHT22;204;48.942;9.256;2023-03-23T01:24:33;15.10;1.00
435;DHT22;204;48.942;9.256;2023-03-23T01:26:59;15.10;1.00
435;DHT22;204;48.942;9.256;2023-03-23T01:29:34;15.10;1.00
435;DHT22;204;48.942;9.256;2023-03-23T01:32:00;15.10;1.00
435;DHT22;204;48.942;9.256;2023-03-23T01:34:26;15.00;1.00
435;DHT22;204;48.942;9.256;2023-03-23T01:36:51;15.00;1.00
435;DHT22;204;48.942;9.256;2023-03-23T01:39:17;15.00;1.00
435;DHT22;204;48.942;9.256;2023-03-23T01:41:42;15.00;1.00
435;DHT22;204;48.942;9.256;2023-03-23T01:46:56;14.90;1.00
435;DHT22;204;48.942;9.256;2023-03-23T01:49:29;14.90;1.00
435;DHT22;204;48.942;9.256;2023-03-23T01:52:03;14.90;1.00
435;DHT22;204;48.942;9.256;2023-03-23T01:54:30;14.80;1.00
435;DHT22;204;48.942;9.256;2023-03-23T01:57:09;14.80;1.00
435;DHT22;204;48.942;9.256;2023-03-23T01:59:36;14.80;1.00
435;DHT22;204;48.942;9.256;2023-03-23T02:02:01;14.80;1.00
435;DHT22;204;48.942;9.256;2023-03-23T02:04:29;14.80;1.00
435;DHT22;204;48.942;9.256;2023-03-23T02:06:56;14.90;1.00
435;DHT22;204;48.942;9.256;2023-03-23T02:09:25;14.90;1.00
435;DHT22;204;48.942;9.256;2023-03-23T02:11:54;14.90;1.00
435;DHT22;204;48.942;9.256;2023-03-23T02:14:20;14.80;1.00
435;DHT22;204;48.942;9.256;2023-03-23T02:22:19;14.80;1.00
435;DHT22;204;48.942;9.256;2023-03-23T02:30:13;14.80;1.00
435;DHT22;204;48.942;9.256;2023-03-23T02:35:52;14.80;1.00
435;DHT22;204;48.942;9.256;2023-03-23T02:38:31;14.80;1.00
435;DHT22;204;48.942;9.256;2023-03-23T02:41:01;14.80;1.00
435;DHT22;204;48.942;9.256;2023-03-23T02:43:33;14.80;1.00
435;DHT22;204;48.942;9.256;2023-03-23T02:46:00;14.80;1.00
435;DHT22;204;48.942;9.256;2023-03-23T02:48:29;14.70;1.00
435;DHT22;204;48.942;9.256;2023-03-23T02:50:55;14.70;1.00
435;DHT22;204;48.942;9.256;2023-03-23T02:53:24;14.70;1.00
435;DHT22;204;48.942;9.256;2023-03-23T02:55:52;14.70;1.00
435;DHT22;204;48.942;9.256;2023-03-23T02:58:20;14.60;1.00
435;DHT22;204;48.942;9.256;2023-03-23T03:00:48;14.60;1.00
435;DHT22;204;48.942;9.256;2023-03-23T03:03:17;14.60;1.00
435;DHT22;204;48.942;9.256;2023-03-23T03:06:00;14.50;1.00
435;DHT22;204;48.942;9.256;2023-03-23T03:08:36;14.50;1.00
435;DHT22;204;48.942;9.256;2023-03-23T03:11:10;14.50;1.00
435;DHT22;204;48.942;9.256;2023-03-23T03:16:45;14.60;1.00
435;DHT22;204;48.942;9.256;2023-03-23T03:19:24;14.60;1.00
435;DHT22;204;48.942;9.256;2023-03-23T03:21:52;14.70;1.00
435;DHT22;204;48.942;9.256;2023-03-23T03:24:21;14.70;1.00
435;DHT22;204;48.942;9.256;2023-03-23T03:26:50;14.70;1.00
435;DHT22;204;48.942;9.256;2023-03-23T03:29:19;14.70;1.00
435;DHT22;204;48.942;9.256;2023-03-23T03:31:47;14.70;1.00
435;DHT22;204;48.942;9.256;2023-03-23T03:34:15;14.70;1.00
435;DHT22;204;48.942;9.256;2023-03-23T03:36:46;14.70;1.00
435;DHT22;204;48.942;9.256;2023-03-23T03:39:13;14.70;1.00
435;DHT22;204;48.942;9.256;2023-03-23T03:41:42;14.70;1.00
435;DHT22;204;48.942;9.256;2023-03-23T03:44:08;14.70;1.00
435;DHT22;204;48.942;9.256;2023-03-23T03:46:34;14.60;1.00
435;DHT22;204;48.942;9.256;2023-03-23T03:49:03;14.70;1.00
435;DHT22;204;48.942;9.256;2023-03-23T03:51:30;14.70;1.00
435;DHT22;204;48.942;9.256;2023-03-23T03:53:56;14.70;1.00
435;DHT22;204;48.942;9.256;2023-03-23T03:56:22;14.70;1.00
435;DHT22;204;48.942;9.256;2023-03-23T03:58:49;14.70;1.00
435;DHT22;204;48.942;9.256;2023-03-23T04:01:16;14.70;1.00
435;DHT22;204;48.942;9.256;2023-03-23T04:03:43;14.70;1.00
435;DHT22;204;48.942;9.256;2023-03-23T04:06:10;14.70;1.00
435;DHT22;204;48.942;9.256;2023-03-23T04:08:38;14.70;1.00
435;DHT22;204;48.942;9.256;2023-03-23T04:11:04;14.70;1.00
435;DHT22;204;48.942;9.256;2023-03-23T04:13:31;14.70;1.00
435;DHT22;204;48.942;9.256;2023-03-23T04:15:56;14.70;1.00
435;DHT22;204;48.942;9.256;2023-03-23T04:18:22;14.70;1.00
435;DHT22;204;48.942;9.256;2023-03-23T04:20:49;14.70;1.00
435;DHT22;204;48.942;9.256;2023-03-23T04:23:16;14.80;1.00
435;DHT22;204;48.942;9.256;2023-03-23T04:25:47;14.80;1.00
435;DHT22;204;48.942;9.256;2023-03-23T04:28:14;14.80;1.00
435;DHT22;204;48.942;9.256;2023-03-23T04:30:42;14.80;1.00
435;DHT22;204;48.942;9.256;2023-03-23T04:33:09;14.80;1.00
435;DHT22;204;48.942;9.256;2023-03-23T04:35:41;14.80;1.00
435;DHT22;204;48.942;9.256;2023-03-23T04:38:07;14.80;1.00
435;DHT22;204;48.942;9.256;2023-03-23T04:40:38;14.80;1.00
435;DHT22;204;48.942;9.256;2023-03-23T04:43:04;14.80;1.00
435;DHT22;204;48.942;9.256;2023-03-23T04:45:32;14.80;1.00
435;DHT22;204;48.942;9.256;2023-03-23T04:47:57;14.80;1.00
435;DHT22;204;48.942;9.256;2023-03-23T04:50:29;14.90;1.00
435;DHT22;204;48.942;9.256;2023-03-23T04:52:57;14.90;1.00
435;DHT22;204;48.942;9.256;2023-03-23T04:55:25;14.90;1.00
435;DHT22;204;48.942;9.256;2023-03-23T04:57:51;14.90;1.00
435;DHT22;204;48.942;9.256;2023-03-23T05:00:17;14.90;1.00
435;DHT22;204;48.942;9.256;2023-03-23T05:02:46;14.90;1.00
435;DHT22;204;48.942;9.256;2023-03-23T05:05:16;14.90;1.00
435;DHT22;204;48.942;9.256;2023-03-23T05:07:42;14.90;1.00
435;DHT22;204;48.942;9.256;2023-03-23T05:10:10;14.90;1.00
435;DHT22;204;48.942;9.256;2023-03-23T05:12:36;14.90;1.00
435;DHT22;204;48.942;9.256;2023-03-23T05:15:02;14.90;1.00
435;DHT22;204;48.942;9.256;2023-03-23T05:17:28;14.90;1.00
435;DHT22;204;48.942;9.256;2023-03-23T05:19:55;14.80;1.00
435;DHT22;204;48.942;9.256;2023-03-23T05:22:22;14.80;1.00
435;DHT22;204;48.942;9.256;2023-03-23T05:24:48;14.80;1.00
435;DHT22;204;48.942;9.256;2023-03-23T05:27:17;14.80;1.00
435;DHT22;204;48.942;9.256;2023-03-23T05:29:47;14.80;1.00
435;DHT22;204;48.942;9.256;2023-03-23T05:32:16;14.80;1.00
435;DHT22;204;48.942;9.256;2023-03-23T05:34:42;14.90;1.00
435;DHT22;204;48.942;9.256;2023-03-23T05:37:09;14.90;1.00
435;DHT22;204;48.942;9.256;2023-03-23T05:39:35;15.00;1.00
435;DHT22;204;48.942;9.256;2023-03-23T05:42:02;15.00;1.00
435;DHT22;204;48.942;9.256;2023-03-23T05:44:28;15.00;1.00
435;DHT22;204;48.942;9.256;2023-03-23T05:46:54;15.00;1.00
435;DHT22;204;48.942;9.256;2023-03-23T05:49:20;15.10;1.00
435;DHT22;204;48.942;9.256;2023-03-23T05:51:46;15.10;1.00
435;DHT22;204;48.942;9.256;2023-03-23T05:54:13;15.20;1.00
435;DHT22;204;48.942;9.256;2023-03-23T05:56:39;15.20;1.00
435;DHT22;204;48.942;9.256;2023-03-23T05:59:05;15.20;1.00
435;DHT22;204;48.942;9.256;2023-03-23T06:01:31;15.20;1.00
435;DHT22;204;48.942;9.256;2023-03-23T06:03:57;15.20;1.00
435;DHT22;204;48.942;9.256;2023-03-23T06:06:28;15.30;1.00
435;DHT22;204;48.942;9.256;2023-03-23T06:08:55;15.30;1.00
435;DHT22;204;48.942;9.256;2023-03-23T06:11:22;15.30;1.00
435;DHT22;204;48.942;9.256;2023-03-23T06:13:48;15.40;1.00
435;DHT22;204;48.942;9.256;2023-03-23T06:16:14;15.40;1.00
435;DHT22;204;48.942;9.256;2023-03-23T06:18:40;15.50;1.00
435;DHT22;204;48.942;9.256;2023-03-23T06:21:06;15.50;1.00
435;DHT22;204;48.942;9.256;2023-03-23T06:23:33;15.60;1.00
435;DHT22;204;48.942;9.256;2023-03-23T06:26:05;15.60;1.00
435;DHT22;204;48.942;9.256;2023-03-23T06:28:31;15.60;1.00
435;DHT22;204;48.942;9.256;2023-03-23T06:31:01;15.60;1.00
435;DHT22;204;48.942;9.256;2023-03-23T06:33:28;15.60;1.00
435;DHT22;204;48.942;9.256;2023-03-23T06:35:54;15.70;1.00
435;DHT22;204;48.942;9.256;2023-03-23T06:38:21;15.70;1.00
435;DHT22;204;48.942;9.256;2023-03-23T06:40:47;15.70;1.00
435;DHT22;204;48.942;9.256;2023-03-23T06:43:13;15.70;1.00
435;DHT22;204;48.942;9.256;2023-03-23T06:45:39;15.70;1.00
435;DHT22;204;48.942;9.256;2023-03-23T06:48:06;15.80;1.00
435;DHT22;204;48.942;9.256;2023-03-23T06:50:32;15.80;1.00
435;DHT22;204;48.942;9.256;2023-03-23T06:52:57;15.80;1.00
435;DHT22;204;48.942;9.256;2023-03-23T06:55:23;16.00;1.00
435;DHT22;204;48.942;9.256;2023-03-23T06:57:49;16.10;1.00
435;DHT22;204;48.942;9.256;2023-03-23T07:00:15;16.30;1.00
435;DHT22;204;48.942;9.256;2023-03-23T07:02:41;16.50;1.00
435;DHT22;204;48.942;9.256;2023-03-23T07:05:08;16.60;1.00
435;DHT22;204;48.942;9.256;2023-03-23T07:07:35;16.70;1.00
435;DHT22;204;48.942;9.256;2023-03-23T07:10:02;16.70;1.00
435;DHT22;204;48.942;9.256;2023-03-23T07:12:28;16.70;1.00
435;DHT22;204;48.942;9.256;2023-03-23T07:14:54;16.70;1.00
435;DHT22;204;48.942;9.256;2023-03-23T07:17:20;16.70;1.00
435;DHT22;204;48.942;9.256;2023-03-23T07:19:45;16.70;1.00
435;DHT22;204;48.942;9.256;2023-03-23T07:22:11;16.70;1.00
435;DHT22;204;48.942;9.256;2023-03-23T07:24:37;16.60;1.00
435;DHT22;204;48.942;9.256;2023-03-23T07:27:03;16.60;1.00
435;DHT22;204;48.942;9.256;2023-03-23T07:29:29;16.60;1.00
435;DHT22;204;48.942;9.256;2023-03-23T07:31:55;16.60;1.00
435;DHT22;204;48.942;9.256;2023-03-23T07:34:21;16.60;1.00
435;DHT22;204;48.942;9.256;2023-03-23T07:36:46;16.60;1.00
435;DHT22;204;48.942;9.256;2023-03-23T07:39:12;16.60;1.00
435;DHT22;204;48.942;9.256;2023-03-23T07:41:38;16.70;1.00
435;DHT22;204;48.942;9.256;2023-03-23T07:44:04;16.60;1.00
435;DHT22;204;48.942;9.256;2023-03-23T07:46:31;16.60;1.00
435;DHT22;204;48.942;9.256;2023-03-23T07:48:57;16.60;1.00
435;DHT22;204;48.942;9.256;2023-03-23T07:51:23;16.50;1.00
435;DHT22;204;48.942;9.256;2023-03-23T07:53:50;16.60;1.00
435;DHT22;204;48.942;9.256;2023-03-23T07:56:16;16.70;1.00
435;DHT22;204;48.942;9.256;2023-03-23T07:58:45;17.00;1.00
435;DHT22;204;48.942;9.256;2023-03-23T08:01:11;17.20;1.00
435;DHT22;204;48.942;9.256;2023-03-23T08:03:37;17.50;1.00
435;DHT22;204;48.942;9.256;2023-03-23T08:06:03;17.80;1.00
435;DHT22;204;48.942;9.256;2023-03-23T08:08:29;18.00;1.00
435;DHT22;204;48.942;9.256;2023-03-23T08:10:55;18.10;1.00
435;DHT22;204;48.942;9.256;2023-03-23T08:13:21;18.20;1.00
435;DHT22;204;48.942;9.256;2023-03-23T08:15:47;18.30;1.00
435;DHT22;204;48.942;9.256;2023-03-23T08:18:12;18.30;1.00
435;DHT22;204;48.942;9.256;2023-03-23T08:20:38;18.40;1.00
435;DHT22;204;48.942;9.256;2023-03-23T08:23:03;18.40;1.00
435;DHT22;204;48.942;9.256;2023-03-23T08:25:30;18.40;1.00
435;DHT22;204;48.942;9.256;2023-03-23T08:27:59;18.40;1.00
435;DHT22;204;48.942;9.256;2023-03-23T08:30:27;18.40;1.00
435;DHT22;204;48.942;9.256;2023-03-23T08:32:55;18.40;1.00
435;DHT22;204;48.942;9.256;2023-03-23T08:35:22;18.40;1.00
435;DHT22;204;48.942;9.256;2023-03-23T08:37:47;18.40;1.00
435;DHT22;204;48.942;9.256;2023-03-23T08:40:17;18.30;1.00
435;DHT22;204;48.942;9.256;2023-03-23T08:42:45;18.40;1.00
435;DHT22;204;48.942;9.256;2023-03-23T08:45:15;18.40;1.00
435;DHT22;204;48.942;9.256;2023-03-23T08:47:42;18.20;1.00
435;DHT22;204;48.942;9.256;2023-03-23T08:50:14;18.00;1.00
435;DHT22;204;48.942;9.256;2023-03-23T08:52:40;17.80;1.00
435;DHT22;204;48.942;9.256;2023-03-23T08:55:06;17.60;1.00
435;DHT22;204;48.942;9.256;2023-03-23T08:57:34;17.40;1.00
435;DHT22;204;48.942;9.256;2023-03-23T09:00:04;17.30;1.00
435;DHT22;204;48.942;9.256;2023-03-23T09:02:42;17.20;1.00
435;DHT22;204;48.942;9.256;2023-03-23T09:05:09;17.10;1.00
435;DHT22;204;48.942;9.256;2023-03-23T09:07:39;17.00;1.00
435;DHT22;204;48.942;9.256;2023-03-23T09:10:06;17.00;1.00
435;DHT22;204;48.942;9.256;2023-03-23T09:12:31;16.90;1.00
435;DHT22;204;48.942;9.256;2023-03-23T09:14:57;16.90;1.00
435;DHT22;204;48.942;9.256;2023-03-23T09:17:23;16.90;1.00
435;DHT22;204;48.942;9.256;2023-03-23T09:19:48;17.10;1.00
435;DHT22;204;48.942;9.256;2023-03-23T09:22:14;17.10;1.00
435;DHT22;204;48.942;9.256;2023-03-23T09:24:41;17.20;1.00
435;DHT22;204;48.942;9.256;2023-03-23T09:27:07;17.30;1.00
435;DHT22;204;48.942;9.256;2023-03-23T09:29:32;17.30;1.00
435;DHT22;204;48.942;9.256;2023-03-23T09:31:58;17.30;1.00
435;DHT22;204;48.942;9.256;2023-03-23T09:34:25;17.40;1.00
435;DHT22;204;48.942;9.256;2023-03-23T09:36:50;17.40;1.00
435;DHT22;204;48.942;9.256;2023-03-23T09:39:17;17.30;1.00
435;DHT22;204;48.942;9.256;2023-03-23T09:44:42;17.20;1.00
435;DHT22;204;48.942;9.256;2023-03-23T09:47:30;17.20;1.00
435;DHT22;204;48.942;9.256;2023-03-23T09:50:08;17.00;1.00
435;DHT22;204;48.942;9.256;2023-03-23T09:55:11;16.90;1.00
435;DHT22;204;48.942;9.256;2023-03-23T09:57:54;16.90;1.00
435;DHT22;204;48.942;9.256;2023-03-23T10:00:43;16.90;1.00
435;DHT22;204;48.942;9.256;2023-03-23T10:03:14;16.90;1.00
435;DHT22;204;48.942;9.256;2023-03-23T10:05:49;16.90;1.00
435;DHT22;204;48.942;9.256;2023-03-23T10:08:20;16.90;1.00
435;DHT22;204;48.942;9.256;2023-03-23T10:13:52;16.80;1.00
435;DHT22;204;48.942;9.256;2023-03-23T10:16:29;16.90;1.00
435;DHT22;204;48.942;9.256;2023-03-23T10:21:44;16.90;1.00
435;DHT22;204;48.942;9.256;2023-03-23T10:24:15;16.90;1.00
435;DHT22;204;48.942;9.256;2023-03-23T10:29:30;16.80;1.00
435;DHT22;204;48.942;9.256;2023-03-23T10:32:17;16.80;1.00
435;DHT22;204;48.942;9.256;2023-03-23T10:34:52;17.00;1.00
435;DHT22;204;48.942;9.256;2023-03-23T10:37:41;17.10;1.00
435;DHT22;204;48.942;9.256;2023-03-23T10:40:23;17.30;1.00
435;DHT22;204;48.942;9.256;2023-03-23T10:42:50;17.50;1.00
435;DHT22;204;48.942;9.256;2023-03-23T10:45:25;17.70;1.00
435;DHT22;204;48.942;9.256;2023-03-23T10:50:48;18.20;1.00
435;DHT22;204;48.942;9.256;2023-03-23T10:53:32;18.40;1.00
435;DHT22;204;48.942;9.256;2023-03-23T10:56:00;18.40;1.00
435;DHT22;204;48.942;9.256;2023-03-23T11:00:58;18.50;1.00
435;DHT22;204;48.942;9.256;2023-03-23T11:05:56;18.50;1.00
435;DHT22;204;48.942;9.256;2023-03-23T11:08:25;18.50;1.00
435;DHT22;204;48.942;9.256;2023-03-23T11:10:58;18.30;1.00
435;DHT22;204;48.942;9.256;2023-03-23T11:13:30;18.30;1.00
435;DHT22;204;48.942;9.256;2023-03-23T11:15:56;18.30;1.00
435;DHT22;204;48.942;9.256;2023-03-23T11:18:47;18.20;1.00
435;DHT22;204;48.942;9.256;2023-03-23T11:21:13;18.20;1.00
435;DHT22;204;48.942;9.256;2023-03-23T11:23:42;18.20;1.00
435;DHT22;204;48.942;9.256;2023-03-23T11:26:30;18.10;1.00
435;DHT22;204;48.942;9.256;2023-03-23T11:29:18;18.10;1.00
435;DHT22;204;48.942;9.256;2023-03-23T11:31:49;18.30;1.00
435;DHT22;204;48.942;9.256;2023-03-23T11:34:20;18.40;1.00
435;DHT22;204;48.942;9.256;2023-03-23T11:42:24;18.90;1.00
435;DHT22;204;48.942;9.256;2023-03-23T11:45:05;18.90;1.00
435;DHT22;204;48.942;9.256;2023-03-23T11:50:27;19.30;1.00
435;DHT22;204;48.942;9.256;2023-03-23T11:53:11;19.50;1.00
435;DHT22;204;48.942;9.256;2023-03-23T11:58:15;19.90;1.00
435;DHT22;204;48.942;9.256;2023-03-23T12:00:55;19.90;1.00
435;DHT22;204;48.942;9.256;2023-03-23T12:03:45;19.80;1.00
435;DHT22;204;48.942;9.256;2023-03-23T12:06:13;19.60;1.00
435;DHT22;204;48.942;9.256;2023-03-23T12:14:44;19.00;1.00
435;DHT22;204;48.942;9.256;2023-03-23T12:22:49;18.70;1.00
435;DHT22;204;48.942;9.256;2023-03-23T12:30:36;18.70;1.00
435;DHT22;204;48.942;9.256;2023-03-23T12:35:50;19.10;1.00
435;DHT22;204;48.942;9.256;2023-03-23T12:41:08;19.60;1.00
435;DHT22;204;48.942;9.256;2023-03-23T12:43:43;19.80;1.00
435;DHT22;204;48.942;9.256;2023-03-23T12:51:45;20.50;1.00
435;DHT22;204;48.942;9.256;2023-03-23T12:54:42;20.50;1.00
435;DHT22;204;48.942;9.256;2023-03-23T12:57:18;20.50;1.00
435;DHT22;204;48.942;9.256;2023-03-23T12:59:57;20.50;1.00
435;DHT22;204;48.942;9.256;2023-03-23T13:05:03;20.60;1.00
435;DHT22;204;48.942;9.256;2023-03-23T13:07:35;20.80;1.00
435;DHT22;204;48.942;9.256;2023-03-23T13:10:22;20.90;1.00
435;DHT22;204;48.942;9.256;2023-03-23T13:12:49;21.00;1.00
435;DHT22;204;48.942;9.256;2023-03-23T13:20:31;21.30;1.00
435;DHT22;204;48.942;9.256;2023-03-23T13:23:24;21.50;1.00
435;DHT22;204;48.942;9.256;2023-03-23T13:26:12;21.40;1.00
435;DHT22;204;48.942;9.256;2023-03-23T13:33:53;21.50;1.00
435;DHT22;204;48.942;9.256;2023-03-23T13:36:38;21.40;1.00
435;DHT22;204;48.942;9.256;2023-03-23T13:39:16;21.40;1.00
435;DHT22;204;48.942;9.256;2023-03-23T13:41:48;21.50;1.00
435;DHT22;204;48.942;9.256;2023-03-23T13:44:20;21.50;1.00
435;DHT22;204;48.942;9.256;2023-03-23T13:47:03;21.60;99.90
435;DHT22;204;48.942;9.256;2023-03-23T13:49:32;21.60;1.00
435;DHT22;204;48.942;9.256;2023-03-23T13:57:55;21.40;1.00
435;DHT22;204;48.942;9.256;2023-03-23T14:11:01;21.20;99.90
435;DHT22;204;48.942;9.256;2023-03-23T14:16:27;21.20;1.00
435;DHT22;204;48.942;9.256;2023-03-23T14:19:00;21.20;1.00
435;DHT22;204;48.942;9.256;2023-03-23T14:21:36;21.20;1.00
435;DHT22;204;48.942;9.256;2023-03-23T14:24:11;21.30;1.00
435;DHT22;204;48.942;9.256;2023-03-23T14:26:37;21.30;1.00
435;DHT22;204;48.942;9.256;2023-03-23T14:29:04;21.30;1.00
435;DHT22;204;48.942;9.256;2023-03-23T14:31:31;21.40;1.00
435;DHT22;204;48.942;9.256;2023-03-23T14:34:03;21.50;1.00
435;DHT22;204;48.942;9.256;2023-03-23T14:36:30;21.50;1.00
435;DHT22;204;48.942;9.256;2023-03-23T14:41:31;21.40;99.90
435;DHT22;204;48.942;9.256;2023-03-23T14:44:00;21.30;1.00
435;DHT22;204;48.942;9.256;2023-03-23T14:46:26;21.20;1.00
435;DHT22;204;48.942;9.256;2023-03-23T14:48:52;20.70;1.00
435;DHT22;204;48.942;9.256;2023-03-23T14:51:20;20.50;1.00
435;DHT22;204;48.942;9.256;2023-03-23T14:53:46;20.20;1.00
435;DHT22;204;48.942;9.256;2023-03-23T14:56:18;19.90;1.00
435;DHT22;204;48.942;9.256;2023-03-23T14:58:48;19.70;1.00
435;DHT22;204;48.942;9.256;2023-03-23T15:01:24;19.50;1.00
435;DHT22;204;48.942;9.256;2023-03-23T15:04:22;19.30;1.00
435;DHT22;204;48.942;9.256;2023-03-23T15:07:08;19.30;1.00
435;DHT22;204;48.942;9.256;2023-03-23T15:09:39;19.20;1.00
435;DHT22;204;48.942;9.256;2023-03-23T15:12:06;19.10;1.00
435;DHT22;204;48.942;9.256;2023-03-23T15:14:47;19.00;1.00
435;DHT22;204;48.942;9.256;2023-03-23T15:17:23;18.80;1.00
435;DHT22;204;48.942;9.256;2023-03-23T15:19:50;18.70;1.00
435;DHT22;204;48.942;9.256;2023-03-23T15:22:28;18.60;1.00
435;DHT22;204;48.942;9.256;2023-03-23T15:25:17;18.40;1.00
435;DHT22;204;48.942;9.256;2023-03-23T15:27:50;18.30;1.00
435;DHT22;204;48.942;9.256;2023-03-23T15:32:59;18.10;1.00
435;DHT22;204;48.942;9.256;2023-03-23T15:35:26;18.00;1.00
435;DHT22;204;48.942;9.256;2023-03-23T15:38:03;17.90;1.00
435;DHT22;204;48.942;9.256;2023-03-23T15:40:34;17.80;1.00
435;DHT22;204;48.942;9.256;2023-03-23T15:43:27;17.70;1.00
435;DHT22;204;48.942;9.256;2023-03-23T15:46:04;17.50;1.00
435;DHT22;204;48.942;9.256;2023-03-23T15:49:06;17.40;1.00
435;DHT22;204;48.942;9.256;2023-03-23T15:51:32;17.20;1.00
435;DHT22;204;48.942;9.256;2023-03-23T15:53:58;17.10;1.00
435;DHT22;204;48.942;9.256;2023-03-23T15:56:25;17.00;1.00
435;DHT22;204;48.942;9.256;2023-03-23T15:58:51;17.00;1.00
435;DHT22;204;48.942;9.256;2023-03-23T16:01:25;16.90;1.00
435;DHT22;204;48.942;9.256;2023-03-23T16:04:00;17.00;1.00
435;DHT22;204;48.942;9.256;2023-03-23T16:06:32;17.00;1.00
435;DHT22;204;48.942;9.256;2023-03-23T16:08:58;17.00;1.00
435;DHT22;204;48.942;9.256;2023-03-23T16:11:27;17.10;1.00
435;DHT22;204;48.942;9.256;2023-03-23T16:13:53;17.10;1.00
435;DHT22;204;48.942;9.256;2023-03-23T16:16:33;17.10;1.00
435;DHT22;204;48.942;9.256;2023-03-23T16:18:59;17.10;1.00
435;DHT22;204;48.942;9.256;2023-03-23T16:21:25;17.00;1.00
435;DHT22;204;48.942;9.256;2023-03-23T16:23:50;17.00;1.00
435;DHT22;204;48.942;9.256;2023-03-23T16:26:16;17.00;1.00
435;DHT22;204;48.942;9.256;2023-03-23T16:28:43;17.00;1.00
435;DHT22;204;48.942;9.256;2023-03-23T16:31:08;17.10;1.00
435;DHT22;204;48.942;9.256;2023-03-23T16:33:35;17.20;1.00
435;DHT22;204;48.942;9.256;2023-03-23T16:36:01;17.20;1.00
435;DHT22;204;48.942;9.256;2023-03-23T16:38:27;17.10;1.00
435;DHT22;204;48.942;9.256;2023-03-23T16:40:53;17.00;1.00
435;DHT22;204;48.942;9.256;2023-03-23T16:43:19;16.80;1.00
435;DHT22;204;48.942;9.256;2023-03-23T16:45:45;16.80;1.00
435;DHT22;204;48.942;9.256;2023-03-23T16:48:13;16.80;1.00
435;DHT22;204;48.942;9.256;2023-03-23T16:50:39;16.70;1.00
435;DHT22;204;48.942;9.256;2023-03-23T16:53:06;16.60;1.00
435;DHT22;204;48.942;9.256;2023-03-23T16:55:33;16.70;1.00
435;DHT22;204;48.942;9.256;2023-03-23T16:57:59;16.70;1.00
435;DHT22;204;48.942;9.256;2023-03-23T17:00:25;16.80;1.00
435;DHT22;204;48.942;9.256;2023-03-23T17:02:53;16.80;1.00
435;DHT22;204;48.942;9.256;2023-03-23T17:05:23;16.80;1.00
435;DHT22;204;48.942;9.256;2023-03-23T17:07:49;16.80;1.00
435;DHT22;204;48.942;9.256;2023-03-23T17:10:16;16.80;1.00
435;DHT22;204;48.942;9.256;2023-03-23T17:12:42;16.80;1.00
435;DHT22;204;48.942;9.256;2023-03-23T17:15:09;16.80;1.00
435;DHT22;204;48.942;9.256;2023-03-23T17:17:36;16.70;1.00
435;DHT22;204;48.942;9.256;2023-03-23T17:20:02;16.50;1.00
435;DHT22;204;48.942;9.256;2023-03-23T17:22:28;16.50;1.00
435;DHT22;204;48.942;9.256;2023-03-23T17:24:54;16.40;1.00
435;DHT22;204;48.942;9.256;2023-03-23T17:27:22;16.40;1.00
435;DHT22;204;48.942;9.256;2023-03-23T17:29:47;16.40;1.00
435;DHT22;204;48.942;9.256;2023-03-23T17:32:13;16.30;1.00
435;DHT22;204;48.942;9.256;2023-03-23T17:34:39;16.30;1.00
435;DHT22;204;48.942;9.256;2023-03-23T17:37:05;16.20;1.00
435;DHT22;204;48.942;9.256;2023-03-23T17:39:30;16.20;1.00
435;DHT22;204;48.942;9.256;2023-03-23T17:41:58;16.10;1.00
435;DHT22;204;48.942;9.256;2023-03-23T17:44:24;16.10;1.00
435;DHT22;204;48.942;9.256;2023-03-23T17:46:50;16.10;1.00
435;DHT22;204;48.942;9.256;2023-03-23T17:49:16;16.00;1.00
435;DHT22;204;48.942;9.256;2023-03-23T17:51:41;16.00;1.00
435;DHT22;204;48.942;9.256;2023-03-23T17:54:07;16.00;1.00
435;DHT22;204;48.942;9.256;2023-03-23T17:56:33;15.90;1.00
435;DHT22;204;48.942;9.256;2023-03-23T17:58:59;15.80;1.00
435;DHT22;204;48.942;9.256;2023-03-23T18:01:24;15.80;1.00
435;DHT22;204;48.942;9.256;2023-03-23T18:03:50;15.80;1.00
435;DHT22;204;48.942;9.256;2023-03-23T18:06:16;15.80;1.00
435;DHT22;204;48.942;9.256;2023-03-23T18:08:42;15.70;1.00
435;DHT22;204;48.942;9.256;2023-03-23T18:11:07;15.80;1.00
435;DHT22;204;48.942;9.256;2023-03-23T18:13:34;15.80;1.00
435;DHT22;204;48.942;9.256;2023-03-23T18:16:00;15.80;1.00
435;DHT22;204;48.942;9.256;2023-03-23T18:18:28;15.70;1.00
435;DHT22;204;48.942;9.256;2023-03-23T18:21:02;15.80;1.00
435;DHT22;204;48.942;9.256;2023-03-23T18:23:29;15.80;1.00
435;DHT22;204;48.942;9.256;2023-03-23T18:25:58;15.90;1.00
435;DHT22;204;48.942;9.256;2023-03-23T18:28:23;15.80;1.00
435;DHT22;204;48.942;9.256;2023-03-23T18:30:49;15.90;1.00
435;DHT22;204;48.942;9.256;2023-03-23T18:33:16;15.90;1.00
435;DHT22;204;48.942;9.256;2023-03-23T18:35:42;16.00;1.00
435;DHT22;204;48.942;9.256;2023-03-23T18:38:09;16.00;1.00
435;DHT22;204;48.942;9.256;2023-03-23T18:40:40;16.00;1.00
435;DHT22;204;48.942;9.256;2023-03-23T18:43:06;16.10;1.00
435;DHT22;204;48.942;9.256;2023-03-23T18:45:31;16.10;1.00
435;DHT22;204;48.942;9.256;2023-03-23T18:47:57;16.10;1.00
435;DHT22;204;48.942;9.256;2023-03-23T18:50:23;16.20;1.00
435;DHT22;204;48.942;9.256;2023-03-23T18:52:49;16.20;1.00
435;DHT22;204;48.942;9.256;2023-03-23T18:55:14;16.30;1.00
435;DHT22;204;48.942;9.256;2023-03-23T18:57:40;16.30;1.00
435;DHT22;204;48.942;9.256;2023-03-23T19:00:06;16.30;1.00
435;DHT22;204;48.942;9.256;2023-03-23T19:02:32;16.30;1.00